KFST/FST METAR and TAF weather

Enter ICAO airport designator
Station Type Date Time Source
KFST METAR 2020/04/06 11:53 UTC NOAA

KFST 061153Z AUTO 13007KT 10SM CLR 15/13 A2991 RMK AO2 SLP091 T01500128 10150 20144 56001


Station Type Date Time Source
KFST Decoded METAR 2020/04/06 11:53 UTC NOAA

FORT STOCKTON PECOS CO AIRPORT , TX, United States (KFST) 30-55N 102-55W 918M
Apr 06, 2020 - 07:53 AM EDT / 2020.04.06 1153 UTC
Wind: from the SE (130 degrees) at 8 MPH (7 KT):0
Visibility: 10 mile(s):0
Sky conditions: clear
Temperature: 59.0 F (15.0 C)
Dew Point: 55.0 F (12.8 C)
Relative Humidity: 86%
Pressure (altimeter): 29.91 in. Hg (1012 hPa)
Pressure tendency: 0.00 inches (0.1 hPa) lower than three hours ago
ob: KFST 061153Z AUTO 13007KT 10SM CLR 15/13 A2991 RMK AO2 SLP091 T01500128 10150 20144 56001
cycle: 12

Station Type Date Time Source
KFST TAF 2020/04/06 12:24 UTC NOAA

TAF KFST 061123Z 0612/0712 15015G23KT P6SM BKN100
FM061500 22015G23KT P6SM OVC100

Example: see airport list